sensor_id;sensor_type;location;lat;lon;timestamp;pressure;altitude;pressure_sealevel;temperature;humidity
65227;BME280;51805;49.012;12.104;2023-02-25T00:00:06;96293.34;;;21.99;50.02
65227;BME280;51805;49.012;12.104;2023-02-25T00:02:31;96297.13;;;21.98;49.92
65227;BME280;51805;49.012;12.104;2023-02-25T00:04:56;96304.97;;;21.99;50.09
65227;BME280;51805;49.012;12.104;2023-02-25T00:07:22;96304.47;;;21.97;50.02
65227;BME280;51805;49.012;12.104;2023-02-25T00:09:47;96313.09;;;21.99;49.87
65227;BME280;51805;49.012;12.104;2023-02-25T00:12:12;96318.63;;;21.94;49.96
65227;BME280;51805;49.012;12.104;2023-02-25T00:14:37;96315.59;;;21.96;50.12
65227;BME280;51805;49.012;12.104;2023-02-25T00:17:02;96321.00;;;21.96;50.13
65227;BME280;51805;49.012;12.104;2023-02-25T00:19:27;96317.00;;;21.93;50.08
65227;BME280;51805;49.012;12.104;2023-02-25T00:21:52;96334.38;;;21.92;50.02
65227;BME280;51805;49.012;12.104;2023-02-25T00:24:17;96331.34;;;21.94;50.01
65227;BME280;51805;49.012;12.104;2023-02-25T00:26:43;96333.25;;;21.93;50.08
65227;BME280;51805;49.012;12.104;2023-02-25T00:29:08;96333.56;;;21.92;50.16
65227;BME280;51805;49.012;12.104;2023-02-25T00:31:33;96338.19;;;21.91;50.07
65227;BME280;51805;49.012;12.104;2023-02-25T00:33:58;96328.47;;;21.90;50.19
65227;BME280;51805;49.012;12.104;2023-02-25T00:36:24;96328.47;;;21.90;50.20
65227;BME280;51805;49.012;12.104;2023-02-25T00:38:50;96317.97;;;21.89;50.07
65227;BME280;51805;49.012;12.104;2023-02-25T00:41:17;96322.59;;;21.88;50.23
65227;BME280;51805;49.012;12.104;2023-02-25T00:43:43;96326.69;;;21.86;50.24
65227;BME280;51805;49.012;12.104;2023-02-25T00:46:09;96333.41;;;21.88;50.04
65227;BME280;51805;49.012;12.104;2023-02-25T00:48:35;96328.78;;;21.89;49.95
65227;BME280;51805;49.012;12.104;2023-02-25T00:51:07;96324.00;;;21.86;50.10
65227;BME280;51805;49.012;12.104;2023-02-25T00:53:33;96339.44;;;21.85;50.20
65227;BME280;51805;49.012;12.104;2023-02-25T00:55:59;96328.94;;;21.84;50.18
65227;BME280;51805;49.012;12.104;2023-02-25T00:58:24;96320.84;;;21.84;50.05
65227;BME280;51805;49.012;12.104;2023-02-25T01:00:49;96322.72;;;21.83;50.14
65227;BME280;51805;49.012;12.104;2023-02-25T01:03:14;96323.53;;;21.84;50.12
65227;BME280;51805;49.012;12.104;2023-02-25T01:05:40;96321.16;;;21.82;50.22
65227;BME280;51805;49.012;12.104;2023-02-25T01:08:05;96331.97;;;21.82;50.28
65227;BME280;51805;49.012;12.104;2023-02-25T01:10:30;96335.75;;;21.81;50.26
65227;BME280;51805;49.012;12.104;2023-02-25T01:12:55;96330.66;;;21.80;50.16
65227;BME280;51805;49.012;12.104;2023-02-25T01:15:21;96328.75;;;21.80;50.22
65227;BME280;51805;49.012;12.104;2023-02-25T01:17:46;96329.56;;;21.81;50.25
65227;BME280;51805;49.012;12.104;2023-02-25T01:20:11;96322.56;;;21.80;50.25
65227;BME280;51805;49.012;12.104;2023-02-25T01:22:36;96321.78;;;21.79;50.11
65227;BME280;51805;49.012;12.104;2023-02-25T01:25:01;96330.19;;;21.78;50.09
65227;BME280;51805;49.012;12.104;2023-02-25T01:27:26;96329.88;;;21.79;50.11
65227;BME280;51805;49.012;12.104;2023-02-25T01:29:51;96334.50;;;21.79;50.17
65227;BME280;51805;49.012;12.104;2023-02-25T01:32:16;96336.38;;;21.78;50.10
65227;BME280;51805;49.012;12.104;2023-02-25T01:34:42;96341.78;;;21.78;50.24
65227;BME280;51805;49.012;12.104;2023-02-25T01:37:07;96342.91;;;21.77;50.26
65227;BME280;51805;49.012;12.104;2023-02-25T01:39:32;96338.59;;;21.76;50.27
65227;BME280;51805;49.012;12.104;2023-02-25T01:41:59;96344.00;;;21.76;50.24
65227;BME280;51805;49.012;12.104;2023-02-25T01:44:32;96347.81;;;21.75;50.30
65227;BME280;51805;49.012;12.104;2023-02-25T01:46:57;96343.50;;;21.74;50.08
65227;BME280;51805;49.012;12.104;2023-02-25T01:49:29;96345.13;;;21.75;50.26
65227;BME280;51805;49.012;12.104;2023-02-25T01:52:04;96353.22;;;21.75;50.23
65227;BME280;51805;49.012;12.104;2023-02-25T01:54:30;96347.31;;;21.73;50.29
65227;BME280;51805;49.012;12.104;2023-02-25T01:56:56;96343.00;;;21.72;50.22
65227;BME280;51805;49.012;12.104;2023-02-25T01:59:25;96343.00;;;21.72;50.20
65227;BME280;51805;49.012;12.104;2023-02-25T02:01:51;96355.41;;;21.73;50.16
65227;BME280;51805;49.012;12.104;2023-02-25T02:04:16;96353.84;;;21.72;50.16
65227;BME280;51805;49.012;12.104;2023-02-25T02:06:44;96355.25;;;21.70;50.33
65227;BME280;51805;49.012;12.104;2023-02-25T02:09:11;96360.34;;;21.71;50.09
65227;BME280;51805;49.012;12.104;2023-02-25T02:11:36;96358.75;;;21.70;49.94
65227;BME280;51805;49.012;12.104;2023-02-25T02:14:02;96360.66;;;21.70;50.10
65227;BME280;51805;49.012;12.104;2023-02-25T02:18:57;96367.47;;;21.67;50.13
65227;BME280;51805;49.012;12.104;2023-02-25T02:26:46;96365.09;;;21.66;50.13
65227;BME280;51805;49.012;12.104;2023-02-25T02:39:41;96363.81;;;21.63;50.12
65227;BME280;51805;49.012;12.104;2023-02-25T02:42:17;96373.81;;;21.63;50.31
65227;BME280;51805;49.012;12.104;2023-02-25T02:44:45;96380.03;;;21.63;50.18
65227;BME280;51805;49.012;12.104;2023-02-25T02:49:48;96368.72;;;21.61;50.06
65227;BME280;51805;49.012;12.104;2023-02-25T02:52:17;96367.16;;;21.60;50.19
65227;BME280;51805;49.012;12.104;2023-02-25T02:54:47;96364.44;;;21.60;50.25
65227;BME280;51805;49.012;12.104;2023-02-25T02:57:15;96370.66;;;21.61;50.21
65227;BME280;51805;49.012;12.104;2023-02-25T02:59:45;96363.63;;;21.60;50.26
65227;BME280;51805;49.012;12.104;2023-02-25T03:02:16;96370.97;;;21.59;50.15
65227;BME280;51805;49.012;12.104;2023-02-25T03:04:42;96360.16;;;21.59;50.24
65227;BME280;51805;49.012;12.104;2023-02-25T03:07:09;96362.84;;;21.59;50.10
65227;BME280;51805;49.012;12.104;2023-02-25T03:09:39;96370.16;;;21.59;50.24
65227;BME280;51805;49.012;12.104;2023-02-25T03:12:07;96375.56;;;21.59;50.08
65227;BME280;51805;49.012;12.104;2023-02-25T03:14:32;96379.38;;;21.58;50.24
65227;BME280;51805;49.012;12.104;2023-02-25T03:17:03;96378.56;;;21.57;50.34
65227;BME280;51805;49.012;12.104;2023-02-25T03:19:38;96379.38;;;21.58;50.41
65227;BME280;51805;49.012;12.104;2023-02-25T03:23:07;96386.69;;;21.57;50.25
65227;BME280;51805;49.012;12.104;2023-02-25T03:25:11;96392.91;;;21.58;50.23
65227;BME280;51805;49.012;12.104;2023-02-25T03:27:39;96388.59;;;21.57;50.37
65227;BME280;51805;49.012;12.104;2023-02-25T03:30:10;96388.91;;;21.55;50.57
65227;BME280;51805;49.012;12.104;2023-02-25T03:32:36;96392.72;;;21.54;50.43
65227;BME280;51805;49.012;12.104;2023-02-25T03:35:03;96395.41;;;21.54;50.51
65227;BME280;51805;49.012;12.104;2023-02-25T03:37:30;96400.81;;;21.54;50.61
65227;BME280;51805;49.012;12.104;2023-02-25T03:39:57;96399.22;;;21.53;50.42
65227;BME280;51805;49.012;12.104;2023-02-25T03:42:29;96403.03;;;21.52;50.67
65227;BME280;51805;49.012;12.104;2023-02-25T03:44:56;96406.84;;;21.51;50.47
65227;BME280;51805;49.012;12.104;2023-02-25T03:47:22;96418.75;;;21.50;50.77
65227;BME280;51805;49.012;12.104;2023-02-25T03:49:55;96406.03;;;21.51;50.50
65227;BME280;51805;49.012;12.104;2023-02-25T03:52:22;96418.44;;;21.52;50.54
65227;BME280;51805;49.012;12.104;2023-02-25T03:54:52;96416.84;;;21.51;50.52
65227;BME280;51805;49.012;12.104;2023-02-25T03:57:18;96425.78;;;21.51;50.52
65227;BME280;51805;49.012;12.104;2023-02-25T03:59:44;96426.84;;;21.50;50.50
65227;BME280;51805;49.012;12.104;2023-02-25T04:02:09;96429.88;;;21.48;50.51
65227;BME280;51805;49.012;12.104;2023-02-25T04:04:35;96437.19;;;21.48;50.46
65227;BME280;51805;49.012;12.104;2023-02-25T04:07:01;96434.50;;;21.48;50.69
65227;BME280;51805;49.012;12.104;2023-02-25T04:09:26;96435.59;;;21.47;51.01
65227;BME280;51805;49.012;12.104;2023-02-25T04:11:51;96431.28;;;21.46;50.87
65227;BME280;51805;49.012;12.104;2023-02-25T04:14:16;96435.59;;;21.47;50.92
65227;BME280;51805;49.012;12.104;2023-02-25T04:16:41;96441.00;;;21.47;50.97
65227;BME280;51805;49.012;12.104;2023-02-25T04:19:06;96444.81;;;21.46;50.86
65227;BME280;51805;49.012;12.104;2023-02-25T04:21:32;96454.03;;;21.45;50.97
65227;BME280;51805;49.012;12.104;2023-02-25T04:23:58;96449.72;;;21.44;51.07
65227;BME280;51805;49.012;12.104;2023-02-25T04:26:23;96442.72;;;21.43;51.01
65227;BME280;51805;49.012;12.104;2023-02-25T04:28:49;96458.13;;;21.42;51.18
65227;BME280;51805;49.012;12.104;2023-02-25T04:31:14;96458.13;;;21.42;50.96
65227;BME280;51805;49.012;12.104;2023-02-25T04:33:39;96461.13;;;21.41;51.05
65227;BME280;51805;49.012;12.104;2023-02-25T04:36:04;96467.84;;;21.43;51.10
65227;BME280;51805;49.012;12.104;2023-02-25T04:38:29;96467.34;;;21.41;51.25
65227;BME280;51805;49.012;12.104;2023-02-25T04:40:55;96471.94;;;21.41;51.28
65227;BME280;51805;49.012;12.104;2023-02-25T04:43:20;96466.84;;;21.39;51.15
65227;BME280;51805;49.012;12.104;2023-02-25T04:45:45;96467.16;;;21.38;51.36
65227;BME280;51805;49.012;12.104;2023-02-25T04:48:10;96472.25;;;21.39;51.17
65227;BME280;51805;49.012;12.104;2023-02-25T04:50:35;96470.66;;;21.38;51.10
65227;BME280;51805;49.012;12.104;2023-02-25T04:53:00;96470.97;;;21.37;51.20
65227;BME280;51805;49.012;12.104;2023-02-25T04:55:25;96474.75;;;21.36;51.42
65227;BME280;51805;49.012;12.104;2023-02-25T04:57:51;96479.59;;;21.39;51.16
65227;BME280;51805;49.012;12.104;2023-02-25T05:00:17;96472.06;;;21.36;51.29
65227;BME280;51805;49.012;12.104;2023-02-25T05:02:43;96477.47;;;21.36;51.12
65227;BME280;51805;49.012;12.104;2023-02-25T05:05:08;96479.28;;;21.40;51.04
65227;BME280;51805;49.012;12.104;2023-02-25T05:07:33;96474.97;;;21.39;51.35
65227;BME280;51805;49.012;12.104;2023-02-25T05:09:58;96485.00;;;21.39;51.38
65227;BME280;51805;49.012;12.104;2023-02-25T05:12:23;96479.28;;;21.40;51.28
65227;BME280;51805;49.012;12.104;2023-02-25T05:14:49;96485.00;;;21.39;51.48
65227;BME280;51805;49.012;12.104;2023-02-25T05:17:14;96487.19;;;21.37;51.37
65227;BME280;51805;49.012;12.104;2023-02-25T05:19:39;96487.50;;;21.35;51.37
65227;BME280;51805;49.012;12.104;2023-02-25T05:22:04;96490.50;;;21.34;51.32
65227;BME280;51805;49.012;12.104;2023-02-25T05:24:29;96481.59;;;21.33;51.36
65227;BME280;51805;49.012;12.104;2023-02-25T05:26:54;96477.00;;;21.34;51.28
65227;BME280;51805;49.012;12.104;2023-02-25T05:29:19;96471.59;;;21.34;51.35
65227;BME280;51805;49.012;12.104;2023-02-25T05:31:45;96461.88;;;21.33;51.33
65227;BME280;51805;49.012;12.104;2023-02-25T05:34:10;96466.81;;;21.31;51.25
65227;BME280;51805;49.012;12.104;2023-02-25T05:36:35;96472.69;;;21.33;51.25
65227;BME280;51805;49.012;12.104;2023-02-25T05:39:00;96474.28;;;21.34;51.15
65227;BME280;51805;49.012;12.104;2023-02-25T05:41:25;96478.09;;;21.33;51.30
65227;BME280;51805;49.012;12.104;2023-02-25T05:43:50;96481.28;;;21.35;51.20
65227;BME280;51805;49.012;12.104;2023-02-25T05:46:15;96482.88;;;21.36;51.14
65227;BME280;51805;49.012;12.104;2023-02-25T05:48:42;96491.47;;;21.38;51.07
65227;BME280;51805;49.012;12.104;2023-02-25T05:51:09;96493.69;;;21.36;51.19
65227;BME280;51805;49.012;12.104;2023-02-25T05:53:34;96500.69;;;21.37;51.21
65227;BME280;51805;49.012;12.104;2023-02-25T05:56:02;96488.78;;;21.38;50.90
65227;BME280;51805;49.012;12.104;2023-02-25T05:58:27;96502.28;;;21.38;51.19
65227;BME280;51805;49.012;12.104;2023-02-25T06:00:53;96505.50;;;21.40;51.03
65227;BME280;51805;49.012;12.104;2023-02-25T06:03:18;96501.19;;;21.39;51.06
65227;BME280;51805;49.012;12.104;2023-02-25T06:05:43;96506.00;;;21.42;50.88
65227;BME280;51805;49.012;12.104;2023-02-25T06:08:09;96506.00;;;21.42;51.04
65227;BME280;51805;49.012;12.104;2023-02-25T06:10:34;96506.00;;;21.42;50.86
65227;BME280;51805;49.012;12.104;2023-02-25T06:12:59;96511.88;;;21.44;50.88
65227;BME280;51805;49.012;12.104;2023-02-25T06:15:25;96506.16;;;21.45;50.75
65227;BME280;51805;49.012;12.104;2023-02-25T06:17:50;96514.25;;;21.45;50.87
65227;BME280;51805;49.012;12.104;2023-02-25T06:20:16;96516.97;;;21.45;51.05
65227;BME280;51805;49.012;12.104;2023-02-25T06:22:41;96524.00;;;21.47;50.94
65227;BME280;51805;49.012;12.104;2023-02-25T06:25:06;96513.97;;;21.47;50.72
65227;BME280;51805;49.012;12.104;2023-02-25T06:27:31;96517.16;;;21.49;50.79
65227;BME280;51805;49.012;12.104;2023-02-25T06:29:57;96513.34;;;21.50;50.76
65227;BME280;51805;49.012;12.104;2023-02-25T06:32:22;96520.38;;;21.51;50.68
65227;BME280;51805;49.012;12.104;2023-02-25T06:34:47;96514.34;;;21.54;50.62
65227;BME280;51805;49.012;12.104;2023-02-25T06:37:12;96520.84;;;21.53;50.69
65227;BME280;51805;49.012;12.104;2023-02-25T06:39:37;96525.16;;;21.54;50.75
65227;BME280;51805;49.012;12.104;2023-02-25T06:42:02;96516.44;;;21.57;50.54
65227;BME280;51805;49.012;12.104;2023-02-25T06:44:28;96525.34;;;21.58;50.64
65227;BME280;51805;49.012;12.104;2023-02-25T06:46:53;96526.13;;;21.58;50.47
65227;BME280;51805;49.012;12.104;2023-02-25T06:49:18;96550.16;;;21.60;50.41
65227;BME280;51805;49.012;12.104;2023-02-25T06:51:44;96528.53;;;21.60;50.50
65227;BME280;51805;49.012;12.104;2023-02-25T06:54:09;96534.44;;;21.62;50.54
65227;BME280;51805;49.012;12.104;2023-02-25T06:56:34;96538.41;;;21.64;50.35
65227;BME280;51805;49.012;12.104;2023-02-25T06:58:59;96551.31;;;21.67;50.19
65227;BME280;51805;49.012;12.104;2023-02-25T07:01:24;96534.31;;;21.67;50.35
65227;BME280;51805;49.012;12.104;2023-02-25T07:03:49;96539.72;;;21.67;50.38
65227;BME280;51805;49.012;12.104;2023-02-25T07:06:15;96543.72;;;21.69;50.20
65227;BME280;51805;49.012;12.104;2023-02-25T07:08:40;96541.50;;;21.71;50.12
65227;BME280;51805;49.012;12.104;2023-02-25T07:13:36;96544.09;;;21.76;49.94
65227;BME280;51805;49.012;12.104;2023-02-25T07:16:01;96538.69;;;21.76;49.95
65227;BME280;51805;49.012;12.104;2023-02-25T07:18:27;96549.22;;;21.78;49.46
65227;BME280;51805;49.012;12.104;2023-02-25T07:20:52;96545.22;;;21.75;49.19
65227;BME280;51805;49.012;12.104;2023-02-25T07:23:17;96547.28;;;21.78;49.07
65227;BME280;51805;49.012;12.104;2023-02-25T07:25:42;96544.59;;;21.78;48.87
65227;BME280;51805;49.012;12.104;2023-02-25T07:28:07;96544.28;;;21.80;48.32
65227;BME280;51805;49.012;12.104;2023-02-25T07:30:32;96534.28;;;21.80;48.05
65227;BME280;51805;49.012;12.104;2023-02-25T07:32:57;96530.44;;;21.81;47.93
65227;BME280;51805;49.012;12.104;2023-02-25T07:35:23;96529.06;;;21.84;48.60
65227;BME280;51805;49.012;12.104;2023-02-25T07:37:48;96533.84;;;21.87;48.50
65227;BME280;51805;49.012;12.104;2023-02-25T07:40:13;96537.63;;;21.86;48.41
65227;BME280;51805;49.012;12.104;2023-02-25T07:42:39;96551.34;;;21.89;48.34
65227;BME280;51805;49.012;12.104;2023-02-25T07:45:04;96554.38;;;21.88;48.49
65227;BME280;51805;49.012;12.104;2023-02-25T07:47:30;96563.13;;;21.93;48.57
65227;BME280;51805;49.012;12.104;2023-02-25T07:49:55;96566.84;;;21.97;48.36
65227;BME280;51805;49.012;12.104;2023-02-25T07:52:20;96564.78;;;22.03;48.21
65227;BME280;51805;49.012;12.104;2023-02-25T07:54:45;96573.84;;;21.98;48.11
65227;BME280;51805;49.012;12.104;2023-02-25T07:57:10;96574.84;;;22.02;48.32
65227;BME280;51805;49.012;12.104;2023-02-25T07:59:35;96558.59;;;22.02;48.15
65227;BME280;51805;49.012;12.104;2023-02-25T08:02:00;96564.63;;;21.99;48.30
65227;BME280;51805;49.012;12.104;2023-02-25T08:04:26;96568.63;;;22.02;48.36
65227;BME280;51805;49.012;12.104;2023-02-25T08:06:51;96569.91;;;22.04;48.21
65227;BME280;51805;49.012;12.104;2023-02-25T08:09:16;96573.22;;;22.01;48.13
65227;BME280;51805;49.012;12.104;2023-02-25T08:11:42;96565.28;;;22.05;48.05
65227;BME280;51805;49.012;12.104;2023-02-25T08:14:07;96570.50;;;22.01;48.29
65227;BME280;51805;49.012;12.104;2023-02-25T08:16:32;96576.41;;;22.03;48.31
65227;BME280;51805;49.012;12.104;2023-02-25T08:18:57;96569.59;;;22.06;48.09
65227;BME280;51805;49.012;12.104;2023-02-25T08:21:23;96566.41;;;22.04;48.25
65227;BME280;51805;49.012;12.104;2023-02-25T08:23:52;96562.28;;;22.06;48.12
65227;BME280;51805;49.012;12.104;2023-02-25T08:26:17;96561.97;;;22.08;48.08
65227;BME280;51805;49.012;12.104;2023-02-25T08:28:43;96543.34;;;22.06;48.10
65227;BME280;51805;49.012;12.104;2023-02-25T08:31:09;96560.84;;;22.09;48.01
65227;BME280;51805;49.012;12.104;2023-02-25T08:33:34;96560.53;;;22.10;48.17
65227;BME280;51805;49.012;12.104;2023-02-25T08:36:10;96542.09;;;22.12;47.99
65227;BME280;51805;49.012;12.104;2023-02-25T08:38:36;96549.28;;;22.17;48.03
65227;BME280;51805;49.012;12.104;2023-02-25T08:41:01;96548.47;;;22.16;47.99
65227;BME280;51805;49.012;12.104;2023-02-25T08:43:26;96552.78;;;22.17;48.02
65227;BME280;51805;49.012;12.104;2023-02-25T08:45:51;96564.88;;;22.20;48.07
65227;BME280;51805;49.012;12.104;2023-02-25T08:48:16;96563.50;;;22.22;48.03
65227;BME280;51805;49.012;12.104;2023-02-25T08:50:42;96561.25;;;22.24;48.58
65227;BME280;51805;49.012;12.104;2023-02-25T08:53:07;96558.72;;;22.28;48.44
65227;BME280;51805;49.012;12.104;2023-02-25T08:55:33;96564.47;;;22.26;48.40
65227;BME280;51805;49.012;12.104;2023-02-25T08:57:58;96563.34;;;22.27;48.54
65227;BME280;51805;49.012;12.104;2023-02-25T09:00:24;96560.63;;;22.27;48.43
65227;BME280;51805;49.012;12.104;2023-02-25T09:02:49;96556.84;;;22.28;48.38
65227;BME280;51805;49.012;12.104;2023-02-25T09:05:14;96554.91;;;22.29;48.32
65227;BME280;51805;49.012;12.104;2023-02-25T09:07:39;96556.69;;;22.33;48.32
65227;BME280;51805;49.012;12.104;2023-02-25T09:10:04;96552.56;;;22.36;48.34
65227;BME280;51805;49.012;12.104;2023-02-25T09:12:30;96560.69;;;22.36;48.22
65227;BME280;51805;49.012;12.104;2023-02-25T09:14:55;96561.97;;;22.38;48.21
65227;BME280;51805;49.012;12.104;2023-02-25T09:17:20;96564.03;;;22.41;48.46
65227;BME280;51805;49.012;12.104;2023-02-25T09:19:45;96569.47;;;22.41;48.57
65227;BME280;51805;49.012;12.104;2023-02-25T09:22:10;96573.78;;;22.42;48.61
65227;BME280;51805;49.012;12.104;2023-02-25T09:24:35;96571.06;;;22.42;48.77
65227;BME280;51805;49.012;12.104;2023-02-25T09:27:01;96574.41;;;22.39;48.93
65227;BME280;51805;49.012;12.104;2023-02-25T09:29:27;96584.59;;;22.42;49.00
65227;BME280;51805;49.012;12.104;2023-02-25T09:31:52;96577.88;;;22.40;49.05
65227;BME280;51805;49.012;12.104;2023-02-25T09:34:17;96584.59;;;22.42;48.92
65227;BME280;51805;49.012;12.104;2023-02-25T09:36:43;96577.56;;;22.41;49.01
65227;BME280;51805;49.012;12.104;2023-02-25T09:39:08;96563.72;;;22.43;49.08
65227;BME280;51805;49.012;12.104;2023-02-25T09:44:20;96569.97;;;22.43;49.03
65227;BME280;51805;49.012;12.104;2023-02-25T09:46:50;96575.38;;;22.43;48.92
65227;BME280;51805;49.012;12.104;2023-02-25T09:49:19;96587.97;;;22.48;48.79
65227;BME280;51805;49.012;12.104;2023-02-25T09:51:47;96576.22;;;22.52;48.71
65227;BME280;51805;49.012;12.104;2023-02-25T09:54:19;96585.31;;;22.56;48.61
65227;BME280;51805;49.012;12.104;2023-02-25T09:56:46;96589.63;;;22.57;48.53
65227;BME280;51805;49.012;12.104;2023-02-25T09:59:15;96600.47;;;22.57;48.62
65227;BME280;51805;49.012;12.104;2023-02-25T10:01:45;96590.72;;;22.56;48.42
65227;BME280;51805;49.012;12.104;2023-02-25T10:04:20;96584.69;;;22.59;48.37
65227;BME280;51805;49.012;12.104;2023-02-25T10:06:47;96589.31;;;22.59;48.44
65227;BME280;51805;49.012;12.104;2023-02-25T10:17:02;96592.69;;;22.64;48.25
65227;BME280;51805;49.012;12.104;2023-02-25T10:19:54;96596.69;;;22.67;48.20
65227;BME280;51805;49.012;12.104;2023-02-25T10:24:42;96593.66;;;22.68;47.97
65227;BME280;51805;49.012;12.104;2023-02-25T10:27:26;96595.25;;;22.69;47.98
65227;BME280;51805;49.012;12.104;2023-02-25T10:30:35;96593.34;;;22.70;47.77
65227;BME280;51805;49.012;12.104;2023-02-25T10:32:40;96593.03;;;22.71;47.76
65227;BME280;51805;49.012;12.104;2023-02-25T10:35:26;96585.38;;;22.73;47.49
65227;BME280;51805;49.012;12.104;2023-02-25T10:37:52;96589.22;;;22.72;47.53
65227;BME280;51805;49.012;12.104;2023-02-25T10:40:19;96585.38;;;22.73;47.50
65227;BME280;51805;49.012;12.104;2023-02-25T10:42:45;96594.00;;;22.75;47.63
65227;BME280;51805;49.012;12.104;2023-02-25T10:45:11;96583.16;;;22.75;47.51
65227;BME280;51805;49.012;12.104;2023-02-25T10:47:37;96584.75;;;22.76;47.53
65227;BME280;51805;49.012;12.104;2023-02-25T10:52:51;96595.59;;;22.76;47.26
65227;BME280;51805;49.012;12.104;2023-02-25T10:55:27;96591.47;;;22.79;47.30
65227;BME280;51805;49.012;12.104;2023-02-25T10:57:53;96577.94;;;22.79;47.02
65227;BME280;51805;49.012;12.104;2023-02-25T11:00:23;96585.75;;;22.80;46.86
65227;BME280;51805;49.012;12.104;2023-02-25T11:02:50;96574.91;;;22.80;46.92
65227;BME280;51805;49.012;12.104;2023-02-25T11:05:28;96575.72;;;22.81;46.80
65227;BME280;51805;49.012;12.104;2023-02-25T11:07:53;96577.31;;;22.82;46.79
65227;BME280;51805;49.012;12.104;2023-02-25T11:10:19;96574.28;;;22.83;46.64
65227;BME280;51805;49.012;12.104;2023-02-25T11:12:55;96565.34;;;22.83;46.81
65227;BME280;51805;49.012;12.104;2023-02-25T11:15:32;96563.44;;;22.83;46.43
65227;BME280;51805;49.012;12.104;2023-02-25T11:18:00;96551.81;;;22.83;46.35
65227;BME280;51805;49.012;12.104;2023-02-25T11:20:26;96539.88;;;22.84;46.35
65227;BME280;51805;49.012;12.104;2023-02-25T11:22:53;96539.88;;;22.84;46.22
65227;BME280;51805;49.012;12.104;2023-02-25T11:25:20;96541.16;;;22.86;46.22
65227;BME280;51805;49.012;12.104;2023-02-25T11:27:54;96531.91;;;22.87;46.34
65227;BME280;51805;49.012;12.104;2023-02-25T11:30:23;96540.03;;;22.87;46.38
65227;BME280;51805;49.012;12.104;2023-02-25T11:32:53;96529.81;;;22.84;45.97
65227;BME280;51805;49.012;12.104;2023-02-25T11:35:20;96545.75;;;22.86;46.06
65227;BME280;51805;49.012;12.104;2023-02-25T11:37:48;96534.16;;;22.85;46.20
65227;BME280;51805;49.012;12.104;2023-02-25T11:40:21;96528.72;;;22.85;46.13
65227;BME280;51805;49.012;12.104;2023-02-25T11:43:12;96541.16;;;22.86;46.00
65227;BME280;51805;49.012;12.104;2023-02-25T11:45:39;96536.84;;;22.85;46.04
65227;BME280;51805;49.012;12.104;2023-02-25T11:48:23;96541.47;;;22.85;45.97
65227;BME280;51805;49.012;12.104;2023-02-25T11:50:52;96539.56;;;22.85;46.08
65227;BME280;51805;49.012;12.104;2023-02-25T11:56:03;96533.03;;;22.86;45.76
65227;BME280;51805;49.012;12.104;2023-02-25T11:58:51;96526.03;;;22.85;45.73
65227;BME280;51805;49.012;12.104;2023-02-25T12:01:38;96508.31;;;22.88;46.08
65227;BME280;51805;49.012;12.104;2023-02-25T12:17:07;96522.81;;;22.92;45.56
65227;BME280;51805;49.012;12.104;2023-02-25T12:19:25;96528.56;;;22.90;45.55
65227;BME280;51805;49.012;12.104;2023-02-25T12:37:18;96511.53;;;22.98;45.57
65227;BME280;51805;49.012;12.104;2023-02-25T12:42:20;96510.88;;;23.01;45.60
65227;BME280;51805;49.012;12.104;2023-02-25T12:44:54;96517.13;;;23.02;45.49
65227;BME280;51805;49.012;12.104;2023-02-25T12:50:03;96503.56;;;23.02;45.67
65227;BME280;51805;49.012;12.104;2023-02-25T13:03:32;96499.72;;;23.03;45.56
65227;BME280;51805;49.012;12.104;2023-02-25T13:08:24;96524.44;;;23.01;45.64
65227;BME280;51805;49.012;12.104;2023-02-25T13:19:03;96530.81;;;22.97;45.58
65227;BME280;51805;49.012;12.104;2023-02-25T13:24:37;96515.69;;;23.04;45.34
65227;BME280;51805;49.012;12.104;2023-02-25T13:32:26;96528.41;;;22.95;45.58
65227;BME280;51805;49.012;12.104;2023-02-25T13:42:53;96520.94;;;23.01;45.43
65227;BME280;51805;49.012;12.104;2023-02-25T13:59:04;96543.09;;;22.94;45.26
65227;BME280;51805;49.012;12.104;2023-02-25T14:01:42;96543.09;;;22.94;45.24
65227;BME280;51805;49.012;12.104;2023-02-25T14:14:39;96539.44;;;23.08;45.11
65227;BME280;51805;49.012;12.104;2023-02-25T14:17:18;96550.91;;;23.04;45.17
65227;BME280;51805;49.012;12.104;2023-02-25T14:22:35;96551.22;;;23.03;45.21
65227;BME280;51805;49.012;12.104;2023-02-25T14:27:30;96540.19;;;22.99;45.08
65227;BME280;51805;49.012;12.104;2023-02-25T14:35:23;96559.81;;;22.96;45.16
65227;BME280;51805;49.012;12.104;2023-02-25T14:43:16;96579.06;;;22.95;45.10
65227;BME280;51805;49.012;12.104;2023-02-25T14:45:51;96588.34;;;22.94;44.82
65227;BME280;51805;49.012;12.104;2023-02-25T14:48:22;96582.41;;;22.92;44.84
65227;BME280;51805;49.012;12.104;2023-02-25T14:50:55;96587.84;;;22.92;45.08
65227;BME280;51805;49.012;12.104;2023-02-25T15:16:58;96614.56;;;22.76;44.88
65227;BME280;51805;49.012;12.104;2023-02-25T15:24:39;96621.72;;;22.72;44.98
65227;BME280;51805;49.012;12.104;2023-02-25T15:27:48;96624.91;;;22.74;44.98
65227;BME280;51805;49.012;12.104;2023-02-25T15:30:12;96623.31;;;22.73;44.84
65227;BME280;51805;49.012;12.104;2023-02-25T15:42:56;96623.31;;;22.73;44.76
65227;BME280;51805;49.012;12.104;2023-02-25T15:53:05;96636.38;;;22.71;44.80
65227;BME280;51805;49.012;12.104;2023-02-25T15:55:33;96644.19;;;22.73;44.80
65227;BME280;51805;49.012;12.104;2023-02-25T15:57:58;96647.22;;;22.71;44.88
65227;BME280;51805;49.012;12.104;2023-02-25T16:06:12;96643.38;;;22.72;44.82
65227;BME280;51805;49.012;12.104;2023-02-25T16:08:51;96650.22;;;22.70;44.73
65227;BME280;51805;49.012;12.104;2023-02-25T16:11:19;96654.22;;;22.72;44.84
65227;BME280;51805;49.012;12.104;2023-02-25T16:13:46;96665.03;;;22.72;44.73
65227;BME280;51805;49.012;12.104;2023-02-25T16:16:11;96661.84;;;22.70;44.72